• Join FlightAware (Why Join?)
  • Login
  • US Flag 
09:12PM EDT


 

Airport Tracker/Info


-or-


 

Live Flight TrackerFlight Track Log ✈ CMP251 ✈ 23-Apr-2013 ✈ MPTO / PTY - SVVA / VLN

Flight Track Log - Related Links

Times and Time Zones

All times are in EDT time to prevent confusion due to time zone crossing. See the CMP251 flight status page for this flight to view local times or setup timezone preferences in your user account.

Time Position Orientation Groundspeed Altitude Reporting Facility
EDT Latitude Longitude Course Direction KTS MPH feet Rate Location/Type
01:26PM 9.0770 -79.0270 106° East 345 397 11,700  Level FlightAware
01:27PM 9.0600 -78.9710 107° East 353 406 13,100 1,020 Climbing FlightAware
01:27PM 9.0430 -78.9050 105° East 353 406 13,100 2,700 Level FlightAware
01:28PM 9.0140 -78.8240 110° East 369 425 17,200 3,840 Climbing FlightAware
01:29PM 8.9910 -78.7510 108° East 377 434 18,900 1,500 Climbing FlightAware
01:30PM 8.9640 -78.6620 107° East 381 438 19,700 480 Climbing FlightAware
01:30PM 8.9480 -78.6030 105° East 381 438 19,700  Level FlightAware
01:31PM 8.9310 -78.5450 107° East 381 438 19,700  Level FlightAware
01:32PM 8.9150 -78.4870 106° East 381 438 19,700  Level FlightAware
01:33PM 8.8940 -78.4140 106° East 381 438 19,700  Level FlightAware
01:35PM 8.9270 -78.1689 82° East  Level Estimated
01:36PM 8.9444 -78.0387 82° East  Level Estimated
01:37PM 8.9618 -77.9086 82° East  Level Estimated
01:38PM 8.9792 -77.7784 82° East  Level Estimated
01:39PM 8.9965 -77.6482 82° East  Level Estimated
01:40PM 9.0137 -77.5180 82° East  Level Estimated
01:41PM 9.0310 -77.3878 82° East  Level Estimated
01:42PM 9.0481 -77.2575 82° East  Level Estimated
01:43PM 9.0653 -77.1273 82° East  Level Estimated
01:44PM 9.0823 -76.9970 82° East  Level Estimated
01:45PM 9.0994 -76.8668 82° East  Level Estimated
01:46PM 9.1164 -76.7365 82° East  Level Estimated
01:47PM 9.1333 -76.6062 82° East  Level Estimated
01:48PM 9.1502 -76.4759 83° East  Level Estimated
01:49PM 9.1670 -76.3456 83° East  Level Estimated
01:50PM 9.1838 -76.2152 83° East  Level Estimated
01:51PM 9.2006 -76.0849 83° East  Level Estimated
01:52PM 9.2173 -75.9545 83° East  Level Estimated
01:53PM 9.2339 -75.8242 83° East  Level Estimated
01:54PM 9.2506 -75.6938 83° East  Level Estimated
01:55PM 9.2671 -75.5634 83° East  Level Estimated
01:56PM 9.2836 -75.4330 83° East  Level Estimated
01:57PM 9.3001 -75.3026 83° East  Level Estimated
01:58PM 9.3165 -75.1721 83° East  Level Estimated
01:59PM 9.3329 -75.0417 83° East  Level Estimated
02:00PM 9.3492 -74.9113 83° East  Level Estimated
02:01PM 9.3655 -74.7808 83° East  Level Estimated
02:02PM 9.3818 -74.6503 83° East  Level Estimated
02:03PM 9.3979 -74.5198 83° East  Level Estimated
02:04PM 9.4141 -74.3893 83° East  Level Estimated
02:05PM 9.4302 -74.2588 83° East  Level Estimated
02:06PM 9.4462 -74.1283 83° East  Level Estimated
02:07PM 9.4622 -73.9977 83° East  Level Estimated
02:08PM 9.4781 -73.8672 83° East  Level Estimated
02:09PM 9.4940 -73.7366 83° East  Level Estimated
02:10PM 9.5099 -73.6060 83° East  Level Estimated
02:11PM 9.5257 -73.4755 83° East  Level Estimated
02:12PM 9.5414 -73.3449 83° East  Level Estimated
02:13PM 9.5571 -73.2142 83° East  Level Estimated
02:14PM 9.5728 -73.0836 83° East  Level Estimated
02:15PM 9.5884 -72.9530 83° East  Level Estimated
02:16PM 9.6039 -72.8223 83° East  Level Estimated
02:17PM 9.6194 -72.6917 83° East  Level Estimated
02:18PM 9.6349 -72.5610 83° East  Level Estimated
02:19PM 9.6503 -72.4303 83° East  Level Estimated
02:20PM 9.6657 -72.2996 83° East  Level Estimated
02:21PM 9.6810 -72.1689 83° East  Level Estimated
02:22PM 9.6962 -72.0382 83° East  Level Estimated
02:23PM 9.7115 -71.9075 83° East  Level Estimated
02:24PM 9.7266 -71.7767 83° East  Level Estimated
02:25PM 9.7417 -71.6460 83° East  Level Estimated
02:26PM 9.7568 -71.5152 83° East  Level Estimated
02:27PM 9.7718 -71.3844 83° East  Level Estimated
02:28PM 9.7868 -71.2536 83° East  Level Estimated
02:29PM 9.8017 -71.1228 83° East  Level Estimated
02:30PM 9.8165 -70.9920 83° East  Level Estimated
02:31PM 9.8313 -70.8612 83° East  Level Estimated
02:32PM 9.8461 -70.7303 83° East  Level Estimated
02:33PM 9.8608 -70.5995 83° East  Level Estimated
02:34PM 9.8755 -70.4686 84° East  Level Estimated
02:35PM 9.8901 -70.3378 84° East  Level Estimated
02:36PM 9.9046 -70.2069 84° East  Level Estimated
02:37PM 9.9192 -70.0760 84° East  Level Estimated
02:38PM 9.9336 -69.9451 84° East  Level Estimated
02:39PM 9.9480 -69.8142 84° East  Level Estimated
02:40PM 9.9624 -69.6832 84° East  Level Estimated
02:41PM 9.9767 -69.5523 84° East  Level Estimated
02:42PM 9.9909 -69.4213 84° East  Level Estimated
02:43PM 10.0051 -69.2904 84° East  Level Estimated
02:44PM 10.0193 -69.1594 84° East  Level Estimated
02:45PM 10.0334 -69.0284 84° East  Level Estimated
02:46PM 10.0474 -68.8974 84° East  Level Estimated
02:47PM 10.0614 -68.7664 84° East  Level Estimated
02:48PM 10.0754 -68.6354 84° East  Level Estimated
02:49PM 10.0893 -68.5043 84° East  Level Estimated
02:50PM 10.1031 -68.3733 84° East  Level Estimated
02:51PM 10.1169 -68.2422 84° East  Level Estimated
02:52PM 10.1307 -68.1112 84° East  Level Estimated
02:53PM 10.1444 -67.9801 84° East  Level Estimated
02:54PM 10.1497 -67.9284 84° East  Level Estimated
02:55PM 10.1497 -67.9284 North  Level Estimated
02:56PM 10.1497 -67.9284 North  Level Estimated
02:57PM 10.1497 -67.9284 North  Level Estimated
02:58PM 10.1497 -67.9284 North  Level Estimated
02:59PM 10.1497 -67.9284 North  Level Estimated
03:00PM 10.1497 -67.9284 North  Level Estimated
03:01PM 10.1497 -67.9284 North  Level Estimated
03:02PM 10.1497 -67.9284 North  Level Estimated
03:03PM 10.1497 -67.9284 North  Level Estimated
03:04PM 10.1497 -67.9284 North  Level Estimated
03:05PM 10.1497 -67.9284 North  Level Estimated
03:06PM 10.1497 -67.9284 North  Level Estimated
03:07PM 10.1497 -67.9284 North  Level Estimated
03:08PM 10.1497 -67.9284 North  Level Estimated
03:09PM 10.1497 -67.9284 North  Level Estimated
03:10PM 10.1497 -67.9284 North  Level Estimated